createdAt,value
2022-10-11T00:03:04.487Z,9.32
2022-10-11T00:06:09.354Z,9.32
2022-10-11T00:09:14.694Z,9.31
2022-10-11T00:12:19.089Z,9.29
2022-10-11T00:15:24.048Z,9.21
2022-10-11T00:18:28.640Z,9.16
2022-10-11T00:21:33.188Z,9.14
2022-10-11T00:24:37.689Z,9.15
2022-10-11T00:27:41.972Z,9.13
2022-10-11T00:30:46.099Z,9.11
2022-10-11T00:33:50.504Z,9.08
2022-10-11T00:36:54.944Z,9.05
2022-10-11T00:39:59.447Z,9.03
2022-10-11T00:43:03.740Z,8.98
2022-10-11T00:46:13.995Z,8.96
2022-10-11T00:49:34.259Z,8.92
2022-10-11T00:52:45.983Z,8.90
2022-10-11T00:55:59.604Z,8.86
2022-10-11T00:59:12.405Z,8.84
2022-10-11T01:02:18.476Z,8.86
2022-10-11T01:05:29.575Z,8.85
2022-10-11T01:08:34.799Z,8.84
2022-10-11T01:11:41.292Z,8.85
2022-10-11T01:15:15.980Z,8.85
2022-10-11T01:18:40.603Z,8.82
2022-10-11T01:21:57.744Z,8.82
2022-10-11T01:25:47.064Z,8.78
2022-10-11T01:29:46.351Z,8.76
2022-10-11T01:33:29.056Z,8.70
2022-10-11T01:37:05.766Z,8.66
2022-10-11T01:40:34.373Z,8.64
2022-10-11T01:43:40.839Z,8.60
2022-10-11T01:46:45.172Z,8.59
2022-10-11T01:50:01.670Z,8.55
2022-10-11T01:53:47.570Z,8.51
2022-10-11T01:57:16.507Z,8.48
2022-10-11T02:00:28.683Z,8.43
2022-10-11T02:03:43.716Z,8.43
2022-10-11T02:07:27.334Z,8.43
2022-10-11T02:10:51.441Z,8.45
2022-10-11T02:14:25.206Z,8.41
2022-10-11T02:17:36.087Z,8.40
2022-10-11T02:20:44.264Z,8.37
2022-10-11T02:24:01.832Z,8.38
2022-10-11T02:27:07.690Z,8.37
2022-10-11T02:30:12.382Z,8.40
2022-10-11T02:33:25.763Z,8.40
2022-10-11T02:36:53.983Z,8.46
2022-10-11T02:40:21.524Z,8.52
2022-10-11T02:43:38.486Z,8.54
2022-10-11T02:46:44.261Z,8.56
2022-10-11T02:49:48.554Z,8.57
2022-10-11T02:52:52.831Z,8.57
2022-10-11T02:55:57.116Z,8.56
2022-10-11T02:59:01.450Z,8.55
2022-10-11T03:02:05.419Z,8.54
2022-10-11T03:05:09.782Z,8.55
2022-10-11T03:08:16.960Z,8.57
2022-10-11T03:11:21.370Z,8.56
2022-10-11T03:14:25.937Z,8.59
2022-10-11T03:17:37.578Z,8.57
2022-10-11T03:20:42.447Z,8.56
2022-10-11T03:23:46.653Z,8.55
2022-10-11T03:26:50.611Z,8.53
2022-10-11T03:29:54.759Z,8.50
2022-10-11T03:32:59.314Z,8.48
2022-10-11T03:36:04.695Z,8.45
2022-10-11T03:39:09.482Z,8.45
2022-10-11T03:42:14.485Z,8.42
2022-10-11T03:45:18.713Z,8.43
2022-10-11T03:48:22.856Z,8.45
2022-10-11T03:51:27.700Z,8.45
2022-10-11T03:54:32.275Z,8.46
2022-10-11T03:57:36.816Z,8.50
2022-10-11T04:00:41.094Z,8.53
2022-10-11T04:03:45.500Z,8.52
2022-10-11T04:06:50.238Z,8.47
2022-10-11T04:09:54.811Z,8.40
2022-10-11T04:12:59.386Z,8.36
2022-10-11T04:16:04.528Z,8.36
2022-10-11T04:19:09.095Z,8.36
2022-10-11T04:22:13.419Z,8.32
2022-10-11T04:25:17.708Z,8.30
2022-10-11T04:28:22.009Z,8.32
2022-10-11T04:31:26.486Z,8.33
2022-10-11T04:34:31.438Z,8.31
2022-10-11T04:37:35.477Z,8.30
2022-10-11T04:40:40.284Z,8.30
2022-10-11T04:43:44.709Z,8.33
2022-10-11T04:46:49.111Z,8.37
2022-10-11T04:49:53.367Z,8.40
2022-10-11T04:52:57.874Z,8.39
2022-10-11T04:56:05.992Z,8.38
2022-10-11T04:59:10.694Z,8.37
2022-10-11T05:02:15.070Z,8.32
2022-10-11T05:05:19.584Z,8.27
2022-10-11T05:08:23.607Z,8.21
2022-10-11T05:11:28.214Z,8.17
2022-10-11T05:14:32.702Z,8.11
2022-10-11T05:17:37.072Z,8.07
2022-10-11T05:20:41.586Z,8.05
2022-10-11T05:23:47.607Z,8.02
2022-10-11T05:26:51.876Z,8.01
2022-10-11T05:29:56.044Z,8.00
2022-10-11T05:33:00.359Z,8.01
2022-10-11T05:36:06.040Z,7.99
2022-10-11T05:39:10.821Z,7.98
2022-10-11T05:42:15.379Z,7.99
2022-10-11T05:45:19.692Z,7.99
2022-10-11T05:48:24.194Z,7.98
2022-10-11T05:51:28.808Z,7.99
2022-10-11T05:54:33.296Z,8.00
2022-10-11T05:57:37.248Z,8.02
2022-10-11T06:00:41.618Z,8.01
2022-10-11T06:03:45.877Z,8.00
2022-10-11T06:06:50.228Z,8.00
2022-10-11T06:09:54.700Z,8.01
2022-10-11T06:12:58.984Z,8.03
2022-10-11T06:16:07.314Z,8.08
2022-10-11T06:19:12.156Z,8.11
2022-10-11T06:22:17.132Z,8.15
2022-10-11T06:25:21.603Z,8.17
2022-10-11T06:28:28.374Z,8.19
2022-10-11T06:31:33.144Z,8.19
2022-10-11T06:34:37.282Z,8.19
2022-10-11T06:37:41.504Z,8.19
2022-10-11T06:40:45.511Z,8.17
2022-10-11T06:43:49.849Z,8.19
2022-10-11T06:46:54.102Z,8.23
2022-10-11T06:49:58.815Z,8.23
2022-10-11T06:53:03.221Z,8.27
2022-10-11T06:56:13.011Z,8.29
2022-10-11T06:59:17.438Z,8.32
2022-10-11T07:02:21.643Z,8.32
2022-10-11T07:05:25.817Z,8.35
2022-10-11T07:08:30.698Z,8.40
2022-10-11T07:11:35.474Z,8.45
2022-10-11T07:14:39.499Z,8.50
2022-10-11T07:17:44.256Z,8.55
2022-10-11T07:20:48.807Z,8.59
2022-10-11T07:23:53.210Z,8.67
2022-10-11T07:26:57.042Z,8.70
2022-10-11T07:30:01.374Z,8.78
2022-10-11T07:33:06.039Z,8.83
2022-10-11T07:36:10.917Z,8.89
2022-10-11T07:39:15.916Z,8.96
2022-10-11T07:42:20.250Z,9.03
2022-10-11T07:45:29.009Z,9.18
2022-10-11T07:48:35.002Z,9.31
2022-10-11T07:51:39.024Z,9.46
2022-10-11T07:54:43.362Z,9.60
2022-10-11T07:57:47.837Z,9.72
2022-10-11T08:00:55.456Z,9.73
2022-10-11T08:04:00.041Z,9.69
2022-10-11T08:07:04.703Z,9.63
2022-10-11T08:10:10.098Z,9.66
2022-10-11T08:13:14.494Z,9.69
2022-10-11T08:16:18.873Z,9.77
2022-10-11T08:19:23.441Z,9.86
2022-10-11T08:22:27.692Z,9.87
2022-10-11T08:25:31.664Z,9.93
2022-10-11T08:28:36.559Z,10.03
2022-10-11T08:31:41.087Z,10.14
2022-10-11T08:34:45.487Z,10.22
2022-10-11T08:37:49.858Z,10.35
2022-10-11T08:40:56.223Z,10.43
2022-10-11T08:45:05.573Z,10.48
2022-10-11T08:48:38.122Z,10.33
2022-10-11T08:51:50.820Z,10.40
2022-10-11T08:55:25.290Z,10.47
2022-10-11T08:59:12.215Z,10.54
2022-10-11T09:02:21.650Z,10.63
2022-10-11T09:05:50.967Z,10.62
2022-10-11T09:09:37.391Z,10.58
2022-10-11T09:12:59.709Z,10.61
2022-10-11T09:16:34.791Z,10.57
2022-10-11T09:19:59.364Z,10.62
2022-10-11T09:23:11.192Z,10.74
2022-10-11T09:27:00.889Z,10.92
2022-10-11T09:30:16.275Z,11.21
2022-10-11T09:33:33.925Z,11.44
2022-10-11T09:37:12.724Z,11.46
2022-10-11T09:40:44.605Z,11.44
2022-10-11T09:43:51.423Z,11.40
2022-10-11T09:46:57.929Z,11.41
2022-10-11T09:50:15.680Z,11.42
2022-10-11T09:53:21.652Z,11.44
2022-10-11T09:56:29.395Z,11.51
2022-10-11T09:59:35.612Z,11.61
2022-10-11T10:02:47.399Z,11.83
2022-10-11T10:06:38.234Z,11.90
2022-10-11T10:09:42.209Z,12.01
2022-10-11T10:12:55.848Z,12.13
2022-10-11T10:16:00.396Z,12.18
2022-10-11T10:19:21.647Z,12.20
2022-10-11T10:22:33.342Z,12.25
2022-10-11T10:25:43.247Z,12.23
2022-10-11T10:29:09.375Z,12.49
2022-10-11T10:32:22.575Z,12.54
2022-10-11T10:35:51.190Z,12.45
2022-10-11T10:39:16.033Z,12.44
2022-10-11T10:42:20.507Z,12.41
2022-10-11T10:45:44.241Z,12.48
2022-10-11T10:49:41.140Z,12.50
2022-10-11T10:53:33.567Z,12.53
2022-10-11T10:56:52.090Z,12.51
2022-10-11T11:00:09.479Z,12.48
2022-10-11T11:03:36.571Z,12.39
2022-10-11T11:06:44.008Z,12.38
2022-10-11T11:10:06.567Z,12.37
2022-10-11T11:13:54.699Z,12.33
2022-10-11T11:17:30.168Z,12.18
2022-10-11T11:20:53.158Z,12.09
2022-10-11T11:24:37.906Z,12.02
2022-10-11T11:28:10.876Z,12.03
2022-10-11T11:32:05.267Z,11.98
2022-10-11T11:35:48.468Z,12.12
2022-10-11T11:39:03.418Z,12.24
2022-10-11T11:42:17.973Z,12.30
2022-10-11T11:45:33.614Z,12.31
2022-10-11T11:48:38.663Z,12.31
2022-10-11T11:51:46.208Z,12.37
2022-10-11T11:55:11.310Z,12.49
2022-10-11T11:58:38.552Z,12.58
2022-10-11T12:02:27.394Z,12.62
2022-10-11T12:05:36.121Z,12.60
2022-10-11T12:08:48.403Z,12.57
2022-10-11T12:12:06.975Z,12.56
2022-10-11T12:15:26.684Z,12.56
2022-10-11T12:18:38.141Z,12.54
2022-10-11T12:21:45.091Z,12.52
2022-10-11T12:24:59.619Z,12.55
2022-10-11T12:28:42.197Z,12.49
2022-10-11T12:32:10.992Z,12.47
2022-10-11T12:35:33.755Z,12.30
2022-10-11T12:38:40.112Z,12.18
2022-10-11T12:41:47.623Z,12.10
2022-10-11T12:45:13.633Z,12.02
2022-10-11T12:48:46.189Z,12.00
2022-10-11T12:52:52.850Z,11.95
2022-10-11T12:56:18.374Z,11.95
2022-10-11T12:59:23.910Z,11.90
2022-10-11T13:02:42.465Z,11.86
2022-10-11T13:05:51.010Z,11.90
2022-10-11T13:09:24.892Z,12.01
2022-10-11T13:12:40.027Z,12.03
2022-10-11T13:15:45.411Z,12.10
2022-10-11T13:18:56.107Z,12.14
2022-10-11T13:22:17.463Z,12.17
2022-10-11T13:25:37.067Z,12.20
2022-10-11T13:28:42.890Z,12.26
2022-10-11T13:31:48.644Z,12.34
2022-10-11T13:38:15.626Z,12.45
2022-10-11T13:41:21.560Z,12.47
2022-10-11T13:44:27.032Z,12.40
2022-10-11T13:47:32.932Z,12.30
2022-10-11T13:50:39.337Z,12.19
2022-10-11T13:54:06.221Z,12.06
2022-10-11T13:57:13.338Z,12.00
2022-10-11T14:00:17.616Z,12.00
2022-10-11T14:03:24.647Z,11.99
2022-10-11T14:07:04.415Z,11.97
2022-10-11T14:10:21.908Z,12.01
2022-10-11T14:13:55.119Z,11.97
2022-10-11T14:17:10.134Z,12.00
2022-10-11T14:20:29.525Z,12.04
2022-10-11T14:23:36.802Z,12.08
2022-10-11T14:26:44.806Z,12.08
2022-10-11T14:30:06.185Z,12.15
2022-10-11T14:33:13.643Z,12.16
2022-10-11T14:36:17.953Z,12.21
2022-10-11T14:39:28.117Z,12.30
2022-10-11T14:42:32.068Z,12.26
2022-10-11T14:45:37.716Z,12.18
2022-10-11T14:48:57.063Z,12.14
2022-10-11T14:52:02.517Z,12.15
2022-10-11T14:55:07.049Z,12.16
2022-10-11T14:58:14.483Z,12.19
2022-10-11T15:01:19.024Z,12.20
2022-10-11T15:04:26.088Z,12.16
2022-10-11T15:07:30.457Z,12.11
2022-10-11T15:10:39.752Z,12.09
2022-10-11T15:13:44.502Z,12.07
2022-10-11T15:16:49.158Z,12.07
2022-10-11T15:19:53.231Z,12.07
2022-10-11T15:22:59.422Z,12.07
2022-10-11T15:26:03.647Z,11.98
2022-10-11T15:29:11.635Z,12.02
2022-10-11T15:32:15.858Z,11.98
2022-10-11T15:35:22.938Z,11.92
2022-10-11T15:38:27.912Z,11.93
2022-10-11T15:41:32.146Z,11.86
2022-10-11T15:44:36.747Z,11.92
2022-10-11T15:47:40.792Z,11.91
2022-10-11T15:50:45.810Z,11.93
2022-10-11T15:53:49.716Z,11.88
2022-10-11T15:56:53.895Z,11.90
2022-10-11T15:59:58.302Z,11.88
2022-10-11T16:03:02.767Z,11.90
2022-10-11T16:06:08.489Z,11.88
2022-10-11T16:09:12.858Z,11.87
2022-10-11T16:12:17.489Z,11.87
2022-10-11T16:15:22.939Z,11.86
2022-10-11T16:18:32.631Z,11.80
2022-10-11T16:21:39.532Z,11.79
2022-10-11T16:24:44.232Z,11.79
2022-10-11T16:27:48.216Z,11.74
2022-10-11T16:30:53.802Z,11.74
2022-10-11T16:33:58.001Z,11.72
2022-10-11T16:37:02.804Z,11.67
2022-10-11T16:40:09.444Z,11.62
2022-10-11T16:43:13.823Z,11.61
2022-10-11T16:46:18.901Z,11.64
2022-10-11T16:49:28.750Z,11.63
2022-10-11T16:52:33.362Z,11.63
2022-10-11T16:55:39.806Z,11.61
2022-10-11T16:58:44.252Z,11.66
2022-10-11T17:01:49.442Z,11.66
2022-10-11T17:04:54.070Z,11.60
2022-10-11T17:07:58.576Z,11.60
2022-10-11T17:11:03.525Z,11.56
2022-10-11T17:14:07.957Z,11.53
2022-10-11T17:17:12.657Z,11.46
2022-10-11T17:20:17.967Z,11.52
2022-10-11T17:23:22.611Z,11.49
2022-10-11T17:26:27.729Z,11.46
2022-10-11T17:29:32.438Z,11.39
2022-10-11T17:32:36.409Z,11.45
2022-10-11T17:35:40.521Z,11.38
2022-10-11T17:38:45.525Z,11.37
2022-10-11T17:41:50.799Z,11.31
2022-10-11T17:44:55.669Z,11.34
2022-10-11T17:48:02.649Z,11.31
2022-10-11T17:51:15.408Z,11.24
2022-10-11T17:54:19.971Z,11.20
2022-10-11T17:57:23.981Z,11.16
2022-10-11T18:00:27.953Z,11.16
2022-10-11T18:03:32.471Z,11.22
2022-10-11T18:06:39.722Z,11.25
2022-10-11T18:09:44.547Z,11.24
2022-10-11T18:12:52.935Z,11.23
2022-10-11T18:15:57.653Z,11.22
2022-10-11T18:19:04.815Z,11.20
2022-10-11T18:22:09.118Z,11.17
2022-10-11T18:25:13.567Z,11.13
2022-10-11T18:28:18.148Z,11.09
2022-10-11T18:31:25.998Z,11.09
2022-10-11T18:34:30.562Z,11.16
2022-10-11T18:37:34.748Z,11.17
2022-10-11T18:40:44.694Z,11.17
2022-10-11T18:43:56.855Z,11.14
2022-10-11T18:47:01.265Z,11.13
2022-10-11T18:50:06.484Z,11.11
2022-10-11T18:53:11.039Z,11.07
2022-10-11T18:56:20.523Z,11.03
2022-10-11T18:59:25.111Z,11.08
2022-10-11T19:02:29.229Z,11.07
2022-10-11T19:05:33.434Z,10.99
2022-10-11T19:08:37.942Z,10.94
2022-10-11T19:11:42.492Z,10.91
2022-10-11T19:14:48.506Z,10.91
2022-10-11T19:17:52.682Z,10.94
2022-10-11T19:20:56.558Z,10.95
2022-10-11T19:24:00.581Z,10.90
2022-10-11T19:27:05.105Z,10.91
2022-10-11T19:30:09.742Z,10.87
2022-10-11T19:33:14.139Z,10.87
2022-10-11T19:36:19.127Z,10.87
2022-10-11T19:39:24.562Z,10.86
2022-10-11T19:42:29.249Z,10.85
2022-10-11T19:45:35.578Z,10.77
2022-10-11T19:48:40.233Z,10.72
2022-10-11T19:51:44.686Z,10.68
2022-10-11T19:54:48.657Z,10.62
2022-10-11T19:57:53.171Z,10.64
2022-10-11T20:01:01.763Z,10.66
2022-10-11T20:04:22.609Z,10.62
2022-10-11T20:07:32.161Z,10.61
2022-10-11T20:10:36.781Z,10.60
2022-10-11T20:13:41.536Z,10.62
2022-10-11T20:16:45.781Z,10.60
2022-10-11T20:19:49.987Z,10.61
2022-10-11T20:22:54.519Z,10.57
2022-10-11T20:26:04.539Z,10.55
2022-10-11T20:29:08.803Z,10.57
2022-10-11T20:32:13.107Z,10.52
2022-10-11T20:35:17.958Z,10.50
2022-10-11T20:38:22.204Z,10.47
2022-10-11T20:41:31.609Z,10.46
2022-10-11T20:44:35.745Z,10.40
2022-10-11T20:47:39.746Z,10.33
2022-10-11T20:50:45.358Z,10.30
2022-10-11T20:53:50.669Z,10.28
2022-10-11T20:56:55.382Z,10.26
2022-10-11T20:59:59.534Z,10.25
2022-10-11T21:03:03.988Z,10.23
2022-10-11T21:06:08.806Z,10.20
2022-10-11T21:09:15.601Z,10.20
2022-10-11T21:12:21.302Z,10.19
2022-10-11T21:15:26.099Z,10.16
2022-10-11T21:18:31.123Z,10.14
2022-10-11T21:21:35.719Z,10.14
2022-10-11T21:24:39.902Z,10.13
2022-10-11T21:27:43.945Z,10.08
2022-10-11T21:30:48.493Z,10.08
2022-10-11T21:33:52.886Z,10.08
2022-10-11T21:36:56.938Z,10.06
2022-10-11T21:40:01.000Z,10.06
2022-10-11T21:43:05.751Z,10.06
2022-10-11T21:46:18.534Z,10.05
2022-10-11T21:49:22.886Z,10.04
2022-10-11T21:52:27.415Z,10.04
2022-10-11T21:55:31.659Z,10.00
2022-10-11T21:58:35.837Z,9.99
2022-10-11T22:01:41.881Z,9.99
2022-10-11T22:04:46.607Z,10.01
2022-10-11T22:07:50.794Z,9.98
2022-10-11T22:10:59.609Z,10.02
2022-10-11T22:14:04.126Z,9.98
2022-10-11T22:17:08.870Z,10.02
2022-10-11T22:20:13.494Z,10.02
2022-10-11T22:23:19.136Z,10.01
2022-10-11T22:26:29.845Z,9.99
2022-10-11T22:29:34.539Z,9.96
2022-10-11T22:32:38.831Z,9.92
2022-10-11T22:35:42.903Z,9.90
2022-10-11T22:38:47.476Z,9.87
2022-10-11T22:41:54.470Z,9.86
2022-10-11T22:44:58.897Z,9.88
2022-10-11T22:48:03.882Z,9.84
2022-10-11T22:51:08.399Z,9.86
2022-10-11T22:54:12.518Z,9.89
2022-10-11T22:57:16.728Z,9.89
2022-10-11T23:00:21.362Z,9.84
2022-10-11T23:03:26.020Z,9.89
2022-10-11T23:06:30.398Z,9.85
2022-10-11T23:09:34.576Z,9.81
2022-10-11T23:12:39.186Z,9.83
2022-10-11T23:15:43.855Z,9.81
2022-10-11T23:18:51.616Z,9.83
2022-10-11T23:21:56.215Z,9.84
2022-10-11T23:25:00.655Z,9.82
2022-10-11T23:28:04.816Z,9.80
2022-10-11T23:31:17.930Z,9.82
2022-10-11T23:34:22.092Z,9.82
2022-10-11T23:37:26.144Z,9.81
2022-10-11T23:40:30.442Z,9.85
2022-10-11T23:43:35.892Z,9.84
2022-10-11T23:46:40.347Z,9.84
2022-10-11T23:49:44.315Z,9.81
2022-10-11T23:52:48.775Z,9.80
2022-10-11T23:55:52.766Z,9.81
2022-10-11T23:58:56.922Z,9.82
